Time;durP1;ratioP1;P1;durP2;ratioP2;P2;SDS_P1;SDS_P2;PMS_P1;PMS_P2;Temp;Humidity;BMP_temperature;BMP_pressure;BME280_temperature;BME280_humidity;BME280_pressure;Samples;Min_cycle;Max_cycle;Signal;HPM_P1;HPM_P2
2022/04/15 00:01:37;;;;;;;2.10;1.70;;;;;;;8.99;86.61;102471.63;5036982;28;20030;-73
2022/04/15 00:04:03;;;;;;;2.03;1.63;;;;;;;9.01;86.69;102465.31;5029126;28;20089;-73
2022/04/15 00:06:28;;;;;;;3.88;2.22;;;;;;;9.03;86.41;102462.56;5032668;28;20489;-73
2022/04/15 00:08:54;;;;;;;3.95;2.10;;;;;;;9.02;86.46;102467.00;5013671;28;20134;-73
2022/04/15 00:11:19;;;;;;;3.53;2.00;;;;;;;8.91;86.86;102450.22;5033083;28;20026;-73
2022/04/15 00:13:45;;;;;;;5.63;1.80;;;;;;;8.92;86.60;102468.53;5014080;28;20504;-73
2022/04/15 00:16:11;;;;;;;4.07;1.63;;;;;;;8.97;86.81;102457.72;5040978;28;20029;-73
2022/04/15 00:18:37;;;;;;;5.35;2.15;;;;;;;9.00;86.94;102473.31;5038631;28;20036;-73
2022/04/15 00:21:03;;;;;;;2.85;1.90;;;;;;;8.92;87.06;102465.06;5032105;28;20022;-73
2022/04/15 00:23:30;;;;;;;3.45;2.05;;;;;;;8.75;86.96;102435.41;5036580;28;20022;-73
2022/04/15 00:25:56;;;;;;;2.45;1.90;;;;;;;8.91;87.41;102464.22;5028126;28;20033;-72
2022/04/15 00:28:21;;;;;;;4.22;2.00;;;;;;;8.76;87.19;102438.91;5031354;28;20052;-72
2022/04/15 00:30:47;;;;;;;4.68;1.95;;;;;;;8.82;87.71;102460.41;5031322;28;20037;-72
2022/04/15 00:33:13;;;;;;;5.80;2.30;;;;;;;8.81;87.89;102463.13;5030026;28;20485;-72
2022/04/15 00:35:38;;;;;;;3.75;2.05;;;;;;;8.74;88.08;102452.16;5030090;28;20029;-72
2022/04/15 00:38:04;;;;;;;5.75;2.28;;;;;;;8.83;87.18;102458.59;5028594;28;20054;-72
2022/04/15 00:40:30;;;;;;;7.32;2.42;;;;;;;8.77;87.80;102446.69;5013145;28;20120;-73
2022/04/15 00:42:55;;;;;;;5.65;2.33;;;;;;;8.88;88.21;102474.94;5012294;28;20032;-73
2022/04/15 00:45:21;;;;;;;4.53;2.20;;;;;;;8.86;88.16;102471.56;5029883;28;20029;-72
2022/04/15 00:47:57;;;;;;;4.90;1.88;;;;;;;8.82;88.60;102475.38;5039631;28;20108;-73
2022/04/15 00:50:33;;;;;;;6.03;2.72;;;;;;;8.73;87.69;102465.41;5034265;28;20124;-73
2022/04/15 00:53:01;;;;;;;8.73;2.47;;;;;;;8.84;88.75;102479.59;5043755;28;20039;-73
2022/04/15 00:55:27;;;;;;;5.50;2.38;;;;;;;8.82;88.64;102464.84;5036639;28;20028;-73
2022/04/15 00:57:56;;;;;;;6.22;2.28;;;;;;;8.78;88.93;102464.19;5012532;28;20512;-73
2022/04/15 01:00:22;;;;;;;6.05;2.03;;;;;;;8.88;88.89;102484.63;5008508;28;20041;-74
2022/04/15 01:02:48;;;;;;;6.95;2.13;;;;;;;8.89;88.63;102491.63;5041073;28;20508;-73
2022/04/15 01:05:14;;;;;;;5.45;2.63;;;;;;;8.87;88.19;102483.81;5027893;28;20025;-73
2022/04/15 01:07:46;;;;;;;6.20;2.60;;;;;;;8.87;88.93;102485.59;5028567;28;20059;-73
2022/04/15 01:10:12;;;;;;;7.93;2.67;;;;;;;8.90;89.59;102480.13;5029058;28;20080;-73
2022/04/15 01:12:40;;;;;;;9.23;2.95;;;;;;;8.87;90.34;102481.16;5041196;28;20451;-73
2022/04/15 01:15:09;;;;;;;9.90;3.20;;;;;;;8.85;90.39;102480.41;5029164;28;20116;-73
2022/04/15 01:17:35;;;;;;;14.23;3.92;;;;;;;8.73;90.40;102471.53;5028428;28;20051;-73
2022/04/15 01:20:01;;;;;;;9.80;3.90;;;;;;;8.80;91.14;102483.34;5030203;28;20021;-73
2022/04/15 01:22:39;;;;;;;7.80;3.47;;;;;;;8.80;91.95;102483.34;5029190;28;20045;-71
2022/04/15 01:25:07;;;;;;;7.35;3.25;;;;;;;8.73;91.34;102470.66;5033220;28;20041;-72
2022/04/15 01:27:37;;;;;;;10.10;3.63;;;;;;;8.82;91.19;102480.63;5028233;28;20025;-72
2022/04/15 01:30:12;;;;;;;5.40;3.17;;;;;;;8.83;90.84;102479.69;5034790;28;20444;-72
2022/04/15 01:32:37;;;;;;;11.52;3.90;;;;;;;8.88;90.40;102480.22;5026449;28;20557;-72
2022/04/15 01:35:05;;;;;;;6.80;3.25;;;;;;;8.84;89.75;102479.59;5035066;28;20573;-72
2022/04/15 01:37:31;;;;;;;5.63;3.78;;;;;;;8.83;90.49;102477.03;5032888;28;20029;-72
2022/04/15 01:39:56;;;;;;;9.85;3.47;;;;;;;8.86;90.92;102487.38;5048969;28;20141;-72
2022/04/15 01:42:22;;;;;;;9.38;4.00;;;;;;;8.86;90.20;102492.63;5017075;28;20025;-73
2022/04/15 01:44:48;;;;;;;8.77;3.45;;;;;;;8.77;90.86;102477.44;5034031;28;20068;-73
2022/04/15 01:47:16;;;;;;;10.38;4.07;;;;;;;8.85;89.76;102496.22;5032243;28;20086;-73
2022/04/15 01:49:41;;;;;;;8.45;3.58;;;;;;;8.85;90.79;102493.59;5033942;28;20090;-72
2022/04/15 01:52:07;;;;;;;10.77;3.47;;;;;;;8.72;90.63;102477.72;5032032;28;20508;-72
2022/04/15 01:54:33;;;;;;;9.20;4.43;;;;;;;8.81;91.79;102500.00;5031921;28;20094;-72
2022/04/15 01:56:58;;;;;;;12.10;4.82;;;;;;;8.77;91.37;102504.59;5033907;28;20044;-72
2022/04/15 01:59:24;;;;;;;7.78;4.18;;;;;;;8.73;91.64;102503.13;5033642;28;20494;-71
2022/04/15 02:01:52;;;;;;;8.55;3.90;;;;;;;8.72;92.53;102511.09;5043047;28;20045;-71
2022/04/15 02:04:18;;;;;;;6.20;4.57;;;;;;;8.68;91.83;102499.09;5034143;28;20025;-73
2022/04/15 02:06:43;;;;;;;5.88;3.60;;;;;;;8.63;91.64;102508.09;5032752;28;20032;-73
2022/04/15 02:09:08;;;;;;;5.25;3.78;;;;;;;8.64;91.78;102504.56;5033098;28;20099;-73
2022/04/15 02:11:34;;;;;;;11.32;5.47;;;;;;;8.49;93.16;102497.59;5033904;28;20033;-72
2022/04/15 02:13:59;;;;;;;9.77;5.75;;;;;;;8.51;93.36;102511.50;5032795;28;20148;-72
2022/04/15 02:16:25;;;;;;;11.68;6.03;;;;;;;8.51;94.09;102522.03;5043256;28;20033;-72
2022/04/15 02:18:50;;;;;;;7.60;4.72;;;;;;;8.43;94.34;102512.00;5034658;28;20673;-72
2022/04/15 02:21:16;;;;;;;9.38;5.63;;;;;;;8.48;94.51;102519.59;5033994;28;20033;-72
2022/04/15 02:23:41;;;;;;;9.15;6.35;;;;;;;8.39;94.48;102517.50;5038507;28;20451;-73
2022/04/15 02:26:06;;;;;;;10.15;5.97;;;;;;;8.37;94.47;102522.00;5036016;28;20032;-72
2022/04/15 02:28:32;;;;;;;10.30;6.65;;;;;;;8.32;95.13;102526.69;5032994;28;20033;-72
2022/04/15 02:30:57;;;;;;;13.18;6.50;;;;;;;8.24;95.60;102521.91;5034805;28;20037;-72
2022/04/15 02:33:22;;;;;;;9.77;5.47;;;;;;;8.14;94.88;102511.09;5032922;28;20485;-72
2022/04/15 02:35:48;;;;;;;11.48;6.35;;;;;;;8.20;94.82;102531.78;5033861;28;20063;-72
2022/04/15 02:38:13;;;;;;;9.10;5.07;;;;;;;8.22;94.36;102526.44;5033292;28;20432;-72
2022/04/15 02:40:39;;;;;;;6.28;4.13;;;;;;;8.22;93.27;102521.16;5046969;28;20082;-72
2022/04/15 02:43:04;;;;;;;6.93;4.07;;;;;;;8.19;93.10;102524.00;5038730;28;20032;-72
2022/04/15 02:45:31;;;;;;;6.80;4.85;;;;;;;8.11;92.58;102510.47;5036044;28;20056;-72
2022/04/15 02:47:57;;;;;;;4.53;3.20;;;;;;;8.11;92.43;102528.88;5038671;28;20021;-72
2022/04/15 02:50:22;;;;;;;3.97;2.70;;;;;;;7.96;91.71;102513.06;5044825;28;20508;-72
2022/04/15 02:52:49;;;;;;;4.95;2.90;;;;;;;8.08;91.34;102532.53;5038814;28;20366;-73
2022/04/15 02:55:14;;;;;;;7.38;3.03;;;;;;;7.97;91.73;102519.16;5037829;28;20067;-72
2022/04/15 02:57:40;;;;;;;5.53;3.03;;;;;;;7.98;91.18;102529.59;5037254;28;20233;-72
2022/04/15 03:00:06;;;;;;;3.88;3.00;;;;;;;7.88;91.41;102527.59;5040475;28;20044;-72
2022/04/15 03:02:32;;;;;;;6.97;3.90;;;;;;;7.92;91.31;102545.72;5032377;28;20045;-72
2022/04/15 03:04:58;;;;;;;4.72;3.83;;;;;;;7.90;91.08;102544.13;5043015;28;20087;-72
2022/04/15 03:07:24;;;;;;;4.78;3.15;;;;;;;7.87;91.30;102534.66;5032497;28;20499;-72
2022/04/15 03:09:50;;;;;;;4.13;2.78;;;;;;;7.86;90.31;102553.13;5035691;28;20029;-72
2022/04/15 03:12:15;;;;;;;3.83;2.67;;;;;;;7.76;90.06;102548.41;5042687;28;20029;-72
2022/04/15 03:14:41;;;;;;;4.35;2.53;;;;;;;7.66;90.04;102534.13;5036396;28;20405;-72
2022/04/15 03:17:07;;;;;;;4.88;3.10;;;;;;;7.78;90.19;102550.97;5033256;28;20036;-72
2022/04/15 03:19:32;;;;;;;3.78;2.88;;;;;;;7.80;89.77;102547.31;5016372;28;20485;-72
2022/04/15 03:21:58;;;;;;;4.70;3.22;;;;;;;7.75;89.72;102538.84;5032894;28;20033;-72
2022/04/15 03:24:23;;;;;;;3.67;2.78;;;;;;;7.80;90.05;102541.22;5038783;28;20112;-72
2022/04/15 03:26:48;;;;;;;4.90;3.75;;;;;;;7.83;90.05;102551.53;5032773;28;20441;-72
2022/04/15 03:29:14;;;;;;;4.70;3.70;;;;;;;7.82;90.30;102563.00;5043204;28;20021;-72
2022/04/15 03:31:39;;;;;;;3.88;3.05;;;;;;;7.82;90.72;102557.75;5034583;28;20029;-72
2022/04/15 03:34:04;;;;;;;2.83;2.20;;;;;;;7.61;90.46;102539.66;5034762;28;20036;-72
2022/04/15 03:36:30;;;;;;;4.38;2.55;;;;;;;7.73;90.03;102559.13;5032136;28;20485;-72
2022/04/15 03:38:55;;;;;;;3.72;1.80;;;;;;;7.79;89.39;102564.00;5035121;28;20036;-72
2022/04/15 03:41:22;;;;;;;9.48;2.70;;;;;;;7.76;88.97;102564.19;5043823;28;20109;-72
2022/04/15 03:43:49;;;;;;;3.10;1.63;;;;;;;7.69;89.48;102556.78;5037080;28;20060;-72
2022/04/15 03:46:14;;;;;;;4.80;2.50;;;;;;;7.67;89.75;102566.53;5036698;28;20020;-72
2022/04/15 03:48:40;;;;;;;5.10;2.55;;;;;;;7.57;89.99;102563.56;5038354;28;20029;-72
2022/04/15 03:51:07;;;;;;;2.88;2.15;;;;;;;7.53;90.07;102570.75;5020091;28;20087;-72
2022/04/15 03:53:33;;;;;;;5.82;3.67;;;;;;;7.53;90.10;102585.69;5036870;28;20029;-72
2022/04/15 03:55:58;;;;;;;2.67;2.13;;;;;;;7.58;89.91;102575.78;5036404;28;20079;-72
2022/04/15 03:58:23;;;;;;;3.30;2.20;;;;;;;7.45;90.09;102572.13;5033167;28;20120;-72
2022/04/15 04:00:49;;;;;;;4.22;2.20;;;;;;;7.49;89.97;102561.41;5032252;28;20041;-72
2022/04/15 04:03:14;;;;;;;2.70;2.40;;;;;;;7.62;90.46;102583.41;5039756;28;20413;-72
2022/04/15 04:05:40;;;;;;;3.28;2.30;;;;;;;7.50;90.68;102575.38;5034284;28;20029;-72
2022/04/15 04:08:05;;;;;;;4.80;2.55;;;;;;;7.57;90.70;102595.94;5033742;28;20025;-72
2022/04/15 04:10:32;;;;;;;4.43;3.63;;;;;;;7.57;90.39;102598.56;5034903;28;20045;-72
2022/04/15 04:12:58;;;;;;;4.15;2.70;;;;;;;7.60;90.81;102600.19;5036403;28;20068;-72
2022/04/15 04:15:23;;;;;;;3.78;3.13;;;;;;;7.56;90.93;102609.19;5041285;28;20067;-73
2022/04/15 04:17:49;;;;;;;6.32;3.50;;;;;;;7.44;91.30;102594.09;5034469;28;20485;-73
2022/04/15 04:20:16;;;;;;;6.45;3.55;;;;;;;7.50;91.73;102612.16;5039195;28;20036;-72
2022/04/15 04:22:41;;;;;;;4.38;3.10;;;;;;;7.46;92.18;102608.00;5032437;28;20030;-72
2022/04/15 04:25:08;;;;;;;3.20;2.50;;;;;;;7.46;92.52;102613.25;5038189;28;20098;-72
2022/04/15 04:27:39;;;;;;;4.47;2.83;;;;;;;7.40;92.61;102612.69;5035789;28;20037;-72
2022/04/15 04:30:06;;;;;;;4.30;2.55;;;;;;;7.32;92.84;102620.13;5036527;28;20121;-72
2022/04/15 04:32:31;;;;;;;4.57;2.38;;;;;;;7.35;92.71;102619.94;5035112;28;20032;-72
2022/04/15 04:34:57;;;;;;;4.05;3.30;;;;;;;7.40;92.42;102631.06;5034241;28;20030;-72
2022/04/15 04:37:22;;;;;;;3.83;2.33;;;;;;;7.42;92.24;102630.97;5040127;28;20056;-72
2022/04/15 04:39:48;;;;;;;8.68;2.53;;;;;;;7.33;91.94;102613.09;5035529;28;20029;-73
2022/04/15 04:42:14;;;;;;;3.83;2.58;;;;;;;7.49;91.96;102628.84;5032943;28;20071;-73
2022/04/15 04:44:40;;;;;;;5.18;2.50;;;;;;;7.52;91.80;102632.16;5034737;28;20026;-72
2022/04/15 04:47:07;;;;;;;3.83;2.38;;;;;;;7.56;91.74;102632.84;5038061;28;20065;-72
2022/04/15 04:49:32;;;;;;;4.00;2.90;;;;;;;7.60;91.21;102634.34;5037551;28;20115;-72
2022/04/15 04:51:58;;;;;;;5.32;3.47;;;;;;;7.52;91.37;102613.75;5035150;28;20112;-72
2022/04/15 04:54:24;;;;;;;8.45;3.92;;;;;;;7.70;90.71;102642.56;5035301;28;20029;-72
2022/04/15 04:56:49;;;;;;;4.68;2.92;;;;;;;7.71;90.86;102645.09;5030372;28;20090;-72
2022/04/15 04:59:15;;;;;;;6.53;3.80;;;;;;;7.72;91.01;102644.16;5035329;28;20050;-72
2022/04/15 05:01:40;;;;;;;4.32;2.92;;;;;;;7.76;90.47;102655.34;5038197;28;20086;-72
2022/04/15 05:04:06;;;;;;;6.60;3.67;;;;;;;7.76;90.48;102658.81;5039661;28;20484;-72
2022/04/15 05:06:31;;;;;;;5.45;3.58;;;;;;;7.69;90.20;102646.97;5021208;28;20035;-72
2022/04/15 05:08:56;;;;;;;5.60;3.45;;;;;;;7.83;90.07;102659.31;5040734;28;20110;-72
2022/04/15 05:11:22;;;;;;;6.30;3.15;;;;;;;7.88;89.46;102661.69;5040018;28;20415;-72
2022/04/15 05:13:50;;;;;;;5.72;4.10;;;;;;;7.90;89.41;102663.28;5032748;28;20029;-72
2022/04/15 05:16:15;;;;;;;6.05;3.75;;;;;;;7.78;89.54;102649.06;5041740;28;20132;-72
2022/04/15 05:18:41;;;;;;;5.80;3.78;;;;;;;7.91;89.34;102670.25;5041057;28;20131;-72
2022/04/15 05:21:06;;;;;;;4.82;3.88;;;;;;;7.92;89.43;102671.09;5034738;28;20515;-72
2022/04/15 05:23:32;;;;;;;10.93;4.50;;;;;;;7.95;89.74;102678.81;5040803;28;20438;-72
2022/04/15 05:25:57;;;;;;;7.82;4.43;;;;;;;7.93;90.11;102684.16;5037653;28;20108;-72
2022/04/15 05:28:22;;;;;;;9.95;6.10;;;;;;;7.86;90.27;102677.56;5039128;28;20033;-72
2022/04/15 05:30:48;;;;;;;11.40;6.10;;;;;;;7.94;90.29;102692.88;5036688;28;20608;-72
2022/04/15 05:33:13;;;;;;;14.43;7.68;;;;;;;7.65;91.11;102657.75;5039509;28;20352;-72
2022/04/15 05:35:38;;;;;;;13.52;8.65;;;;;;;7.63;91.63;102673.59;5022609;28;20087;-72
2022/04/15 05:38:07;;;;;;;13.63;7.57;;;;;;;7.76;92.11;102695.63;5036175;28;20129;-72
2022/04/15 05:40:32;;;;;;;11.65;8.05;;;;;;;7.72;91.23;102698.50;5033495;28;20561;-72
2022/04/15 05:42:58;;;;;;;15.93;8.60;;;;;;;7.69;90.90;102698.69;5034213;28;20132;-72
2022/04/15 05:45:23;;;;;;;14.75;7.72;;;;;;;7.73;90.59;102708.94;5039345;28;20056;-72
2022/04/15 05:47:48;;;;;;;14.43;7.75;;;;;;;7.69;89.64;102702.16;5038051;28;20056;-72
2022/04/15 05:50:14;;;;;;;10.98;7.20;;;;;;;7.68;89.67;102696.97;5018407;28;20037;-72
2022/04/15 05:52:39;;;;;;;16.58;8.57;;;;;;;7.82;89.58;102715.47;5035345;28;21174;-72
2022/04/15 05:55:05;;;;;;;15.30;8.02;;;;;;;7.87;89.78;102717.81;5031980;28;20144;-72
2022/04/15 05:57:31;;;;;;;13.25;7.28;;;;;;;7.88;89.54;102715.09;5035114;28;20033;-72
2022/04/15 05:59:56;;;;;;;12.93;7.82;;;;;;;7.76;89.59;102703.50;5031510;28;20049;-71
2022/04/15 06:02:24;;;;;;;15.07;7.50;;;;;;;7.92;89.60;102721.88;5030604;28;20026;-71
2022/04/15 06:04:49;;;;;;;12.48;7.35;;;;;;;7.92;89.47;102715.78;5031832;28;20038;-72
2022/04/15 06:07:15;;;;;;;14.65;7.38;;;;;;;8.01;89.21;102729.25;5031837;28;20052;-72
2022/04/15 06:09:40;;;;;;;14.52;7.50;;;;;;;8.07;88.84;102725.41;5024065;28;20030;-72
2022/04/15 06:12:06;;;;;;;15.30;8.27;;;;;;;8.02;88.96;102730.09;5032806;28;20041;-72
2022/04/15 06:14:35;;;;;;;12.82;7.38;;;;;;;7.98;89.19;102726.78;5033967;28;20040;-72
2022/04/15 06:17:01;;;;;;;13.77;6.90;;;;;;;8.02;88.98;102724.84;5015422;28;20036;-72
2022/04/15 06:19:26;;;;;;;12.38;7.45;;;;;;;8.06;88.71;102739.53;5029037;28;20029;-71
2022/04/15 06:21:52;;;;;;;13.35;7.00;;;;;;;7.90;88.48;102717.66;5029304;28;20497;-71
2022/04/15 06:24:18;;;;;;;10.90;5.20;;;;;;;8.03;88.01;102734.41;5034963;28;20409;-73
2022/04/15 06:26:43;;;;;;;9.00;5.20;;;;;;;8.07;87.09;102728.06;5031765;28;20021;-72
2022/04/15 06:29:09;;;;;;;9.48;5.82;;;;;;;8.22;87.11;102755.25;5032497;28;20025;-72
2022/04/15 06:31:34;;;;;;;12.32;6.60;;;;;;;8.21;87.13;102756.22;5032571;28;20122;-73
2022/04/15 06:33:59;;;;;;;10.95;5.80;;;;;;;8.22;87.10;102757.91;5028754;28;20067;-73
2022/04/15 06:36:25;;;;;;;12.73;5.50;;;;;;;8.21;86.93;102749.16;5029588;28;20128;-72
2022/04/15 06:38:51;;;;;;;9.43;5.38;;;;;;;8.33;86.65;102758.13;5015081;28;20409;-73
2022/04/15 06:41:16;;;;;;;11.85;6.03;;;;;;;8.36;86.75;102767.63;5031539;28;20143;-72
2022/04/15 06:43:41;;;;;;;12.05;5.55;;;;;;;8.38;86.98;102761.34;5031858;28;20124;-72
2022/04/15 06:46:07;;;;;;;8.40;5.38;;;;;;;8.41;87.29;102769.09;5033755;28;20379;-72
2022/04/15 06:48:32;;;;;;;7.20;4.30;;;;;;;8.57;87.85;102774.31;5028374;28;20037;-71
2022/04/15 06:50:58;;;;;;;11.35;5.00;;;;;;;8.69;87.17;102785.91;5029603;28;20053;-73
2022/04/15 06:53:24;;;;;;;11.20;4.95;;;;;;;8.81;86.61;102789.59;5030203;28;20037;-72
2022/04/15 06:55:50;;;;;;;10.85;5.13;;;;;;;8.87;85.46;102773.44;5030678;28;20025;-73
2022/04/15 06:58:16;;;;;;;10.30;5.25;;;;;;;8.82;84.76;102776.34;5029810;28;20030;-73
2022/04/15 07:00:42;;;;;;;10.18;4.05;;;;;;;8.85;84.56;102780.56;5024571;28;20409;-73
2022/04/15 07:03:09;;;;;;;9.85;4.63;;;;;;;9.04;84.92;102793.50;5029542;28;20029;-72
2022/04/15 07:05:34;;;;;;;11.02;4.80;;;;;;;9.16;84.25;102794.53;5035612;28;20559;-72
2022/04/15 07:08:00;;;;;;;10.05;4.63;;;;;;;9.13;83.46;102786.84;4994547;28;20120;-72
2022/04/15 07:10:25;;;;;;;7.25;4.88;;;;;;;9.06;83.01;102795.09;5013389;28;20095;-73
2022/04/15 07:12:51;;;;;;;7.60;4.60;;;;;;;8.97;82.84;102785.13;5028632;28;20583;-72
2022/04/15 07:15:16;;;;;;;8.75;3.88;;;;;;;8.92;81.83;102794.22;5028581;28;20545;-72
2022/04/15 07:17:42;;;;;;;6.63;4.00;;;;;;;8.99;81.82;102793.78;5028461;28;20033;-72
2022/04/15 07:20:08;;;;;;;7.93;4.70;;;;;;;8.90;82.23;102778.50;5026636;28;20064;-72
2022/04/15 07:22:33;;;;;;;9.57;4.00;;;;;;;8.90;82.60;102762.72;5025003;28;20037;-72
2022/04/15 07:24:59;;;;;;;7.32;4.00;;;;;;;9.17;82.42;102804.16;5012911;28;20044;-72
2022/04/15 07:27:24;;;;;;;7.95;4.22;;;;;;;9.25;82.22;102802.75;5029040;28;20052;-71
2022/04/15 07:29:49;;;;;;;6.82;3.97;;;;;;;9.33;80.79;102802.25;5027542;28;20056;-71
2022/04/15 07:32:25;;;;;;;6.72;3.88;;;;;;;9.41;80.23;102783.34;5029216;28;20033;-71
2022/04/15 07:34:51;;;;;;;6.00;3.70;;;;;;;10.05;79.11;102810.09;5029797;28;20853;-72
2022/04/15 07:37:17;;;;;;;7.47;4.22;;;;;;;10.58;78.38;102800.50;5026293;28;20063;-71
2022/04/15 07:39:43;;;;;;;5.22;3.55;;;;;;;10.87;75.67;102811.72;5025772;28;20030;-71
2022/04/15 07:42:09;;;;;;;9.73;3.78;;;;;;;11.24;75.07;102803.09;5021492;28;20584;-72
2022/04/15 07:44:34;;;;;;;7.10;3.83;;;;;;;11.59;74.62;102805.06;5019069;28;20528;-71
2022/04/15 07:46:59;;;;;;;6.00;3.38;;;;;;;11.77;73.88;102814.31;5023578;28;20030;-71
2022/04/15 07:49:25;;;;;;;7.93;3.70;;;;;;;11.77;72.70;102814.31;5023657;28;20020;-72
2022/04/15 07:51:50;;;;;;;8.07;4.00;;;;;;;11.85;71.71;102822.56;5027097;28;20484;-72
2022/04/15 07:54:16;;;;;;;6.82;3.88;;;;;;;12.00;70.83;102817.13;5028744;28;20405;-73
2022/04/15 07:56:41;;;;;;;7.18;3.25;;;;;;;11.97;71.60;102814.72;5027748;28;20086;-71
2022/04/15 07:59:07;;;;;;;7.68;3.40;;;;;;;11.98;71.77;102827.00;5022421;28;20472;-72
2022/04/15 08:01:33;;;;;;;7.57;3.40;;;;;;;12.50;70.01;102831.97;5029479;28;20116;-73
2022/04/15 08:03:59;;;;;;;9.57;3.80;;;;;;;12.83;68.64;102832.22;5026768;28;20025;-71
2022/04/15 08:06:26;;;;;;;7.45;3.17;;;;;;;12.85;68.65;102827.66;5031785;28;20489;-73
2022/04/15 08:09:00;;;;;;;6.38;3.10;;;;;;;12.63;68.73;102839.00;5032543;28;20385;-72
2022/04/15 08:11:26;;;;;;;5.82;3.38;;;;;;;12.55;68.42;102829.81;5035064;28;20456;-74
2022/04/15 08:15:17;;;;;;;8.23;4.28;;;;;;;12.44;69.93;102839.53;5044698;28;20387;-73
2022/04/15 08:17:42;;;;;;;4.57;3.38;;;;;;;12.09;70.25;102842.97;5061796;28;20033;-73
2022/04/15 08:20:08;;;;;;;10.60;3.92;;;;;;;12.58;69.18;102841.16;5061541;28;20029;-73
2022/04/15 08:22:36;;;;;;;7.35;3.65;;;;;;;13.09;68.17;102824.91;5044428;28;20380;-73
2022/04/15 08:25:04;;;;;;;7.93;3.40;;;;;;;13.91;64.02;102849.41;5039998;28;20032;-73
2022/04/15 08:27:29;;;;;;;8.80;3.70;;;;;;;14.70;63.21;102846.56;5041357;28;20520;-74
2022/04/15 08:29:55;;;;;;;8.75;3.83;;;;;;;16.16;60.97;102846.41;5028320;28;20040;-73
2022/04/15 08:32:21;;;;;;;6.43;3.58;;;;;;;16.19;58.70;102846.97;5036069;28;20431;-73
2022/04/15 08:34:46;;;;;;;10.60;4.03;;;;;;;15.58;59.47;102839.91;5043950;28;20675;-74
2022/04/15 08:37:13;;;;;;;6.38;3.45;;;;;;;16.89;59.07;102840.69;5038192;28;20116;-73
2022/04/15 08:39:39;;;;;;;7.28;3.40;;;;;;;17.15;55.81;102854.25;5035934;28;20383;-73
2022/04/15 08:42:07;;;;;;;7.70;4.30;;;;;;;17.17;55.76;102852.28;5038620;28;20079;-73
2022/04/15 08:44:32;;;;;;;8.30;3.33;;;;;;;16.79;56.93;102854.00;5039208;28;20037;-73
2022/04/15 08:47:00;;;;;;;6.03;3.70;;;;;;;16.20;57.43;102856.66;5051425;28;20048;-73
2022/04/15 08:49:26;;;;;;;8.80;4.03;;;;;;;15.59;59.12;102857.56;5037554;28;20073;-73
2022/04/15 08:51:52;;;;;;;6.53;3.55;;;;;;;15.06;60.38;102868.34;5040500;28;20098;-73
2022/04/15 08:54:18;;;;;;;6.43;3.70;;;;;;;16.34;58.92;102868.72;5041351;28;20244;-74
2022/04/15 08:56:44;;;;;;;6.20;3.85;;;;;;;17.94;53.66;102871.63;5043720;28;20115;-73
2022/04/15 08:59:09;;;;;;;7.68;3.67;;;;;;;17.81;53.16;102875.50;5042846;28;20099;-74
2022/04/15 09:01:35;;;;;;;7.45;3.80;;;;;;;16.91;54.46;102878.72;5026598;28;20033;-73
2022/04/15 09:04:00;;;;;;;6.00;3.50;;;;;;;17.02;56.06;102878.56;5041880;28;20035;-72
2022/04/15 09:06:31;;;;;;;6.50;3.38;;;;;;;17.89;53.24;102880.09;5044006;28;20086;-73
2022/04/15 09:09:08;;;;;;;7.20;3.78;;;;;;;17.50;53.99;102880.25;5041417;28;20029;-72
2022/04/15 09:11:38;;;;;;;10.25;3.97;;;;;;;17.02;54.38;102870.56;5041238;28;20086;-74
2022/04/15 09:14:12;;;;;;;8.90;3.97;;;;;;;16.70;55.28;102871.69;5033069;28;20060;-74
2022/04/15 09:16:43;;;;;;;5.05;3.08;;;;;;;15.45;57.37;102889.84;5024577;28;20052;-72
2022/04/15 09:19:10;;;;;;;6.32;3.53;;;;;;;15.26;58.30;102890.56;5038723;28;20026;-72
2022/04/15 09:21:38;;;;;;;5.22;3.95;;;;;;;15.44;58.77;102893.50;5040970;28;20127;-73
2022/04/15 09:24:04;;;;;;;4.65;3.25;;;;;;;14.70;59.04;102872.28;5042029;28;20022;-73
2022/04/15 09:26:29;;;;;;;5.75;3.40;;;;;;;14.88;59.88;102885.88;5018825;28;20410;-73
2022/04/15 09:28:55;;;;;;;4.75;3.08;;;;;;;15.31;58.97;102899.03;5022305;28;20033;-73
2022/04/15 09:31:23;;;;;;;6.13;3.08;;;;;;;15.27;58.69;102896.75;5029812;28;20032;-73
2022/04/15 09:33:54;;;;;;;6.63;3.90;;;;;;;14.91;60.15;102897.06;5026067;28;20040;-73
2022/04/15 09:36:23;;;;;;;7.10;3.92;;;;;;;14.54;62.16;102899.25;5028304;28;20033;-73
2022/04/15 09:38:50;;;;;;;5.70;3.92;;;;;;;14.51;62.33;102904.81;5028813;28;20032;-72
2022/04/15 09:41:21;;;;;;;7.07;4.38;;;;;;;14.31;62.38;102904.63;5019431;28;20026;-73
2022/04/15 09:43:51;;;;;;;4.40;3.20;;;;;;;13.90;62.44;102903.47;5026964;28;20060;-73
2022/04/15 09:46:17;;;;;;;5.40;3.03;;;;;;;14.08;60.69;102898.50;5021922;28;20026;-72
2022/04/15 09:48:57;;;;;;;5.45;3.63;;;;;;;14.53;60.17;102902.88;5011453;28;20246;-73
2022/04/15 09:51:23;;;;;;;6.05;3.67;;;;;;;13.90;62.62;102906.13;5017743;28;20013;-73
2022/04/15 09:53:51;;;;;;;4.88;3.45;;;;;;;14.08;61.81;102905.63;5027403;28;20053;-73
2022/04/15 09:56:18;;;;;;;5.15;3.83;;;;;;;13.72;61.91;102902.28;5021602;28;20044;-72
2022/04/15 09:58:50;;;;;;;4.57;3.17;;;;;;;13.62;62.33;102907.44;5028968;28;20120;-72
2022/04/15 10:01:15;;;;;;;5.63;3.05;;;;;;;13.58;62.05;102911.31;5027902;28;20036;-72
2022/04/15 10:03:45;;;;;;;4.45;3.15;;;;;;;13.73;63.00;102909.28;5027199;28;20401;-73
2022/04/15 10:06:12;;;;;;;4.57;3.10;;;;;;;13.29;62.76;102909.09;5028700;28;20094;-73
2022/04/15 10:08:40;;;;;;;5.25;2.92;;;;;;;13.02;62.57;102885.50;5027078;28;20034;-73
2022/04/15 10:11:09;;;;;;;3.90;2.90;;;;;;;12.96;64.77;102908.00;5027499;28;20025;-72
2022/04/15 10:13:35;;;;;;;4.95;3.20;;;;;;;13.09;64.55;102907.94;5026211;28;20053;-72
2022/04/15 10:16:02;;;;;;;5.22;3.03;;;;;;;12.75;64.81;102897.19;5016972;28;20028;-72
2022/04/15 10:18:28;;;;;;;5.35;3.22;;;;;;;12.56;66.86;102912.75;5029401;28;20023;-73
2022/04/15 10:20:54;;;;;;;5.47;3.33;;;;;;;12.26;67.00;102911.41;5028443;28;20025;-73
2022/04/15 10:23:22;;;;;;;6.35;3.65;;;;;;;12.22;67.41;102904.63;5027052;28;20321;-71
2022/04/15 10:25:49;;;;;;;7.93;3.13;;;;;;;12.46;67.10;102914.41;5014170;28;20229;-73
2022/04/15 10:28:20;;;;;;;5.88;2.95;;;;;;;12.47;68.57;102913.44;5025122;28;20022;-71
2022/04/15 10:31:05;;;;;;;5.22;3.70;;;;;;;12.24;66.86;102904.53;5019648;28;20513;-73
2022/04/15 10:33:33;;;;;;;6.57;3.40;;;;;;;12.14;67.36;102891.09;5027867;28;20030;-72
2022/04/15 10:36:00;;;;;;;7.00;3.58;;;;;;;11.87;68.14;102904.47;5027458;28;20426;-72
2022/04/15 10:38:25;;;;;;;5.35;3.17;;;;;;;11.69;68.79;102880.13;5025098;28;20018;-72
2022/04/15 10:40:51;;;;;;;4.15;3.33;;;;;;;11.66;68.33;102912.09;5027186;28;20026;-73
2022/04/15 10:43:16;;;;;;;4.03;2.83;;;;;;;11.96;67.79;102908.31;5025049;28;20029;-73
2022/04/15 10:45:41;;;;;;;4.65;3.00;;;;;;;12.32;66.11;102903.03;5027898;28;20033;-72
2022/04/15 10:48:07;;;;;;;4.55;3.22;;;;;;;12.21;66.44;102887.03;5015860;28;20045;-72
2022/04/15 10:50:34;;;;;;;5.72;3.38;;;;;;;12.34;65.93;102902.91;5010813;28;20034;-72
2022/04/15 10:53:28;;;;;;;4.95;3.15;;;;;;;12.42;67.48;102910.28;5017399;28;20025;-72
2022/04/15 10:55:53;;;;;;;4.55;3.45;;;;;;;12.57;66.64;102914.47;5024753;28;20026;-72
2022/04/15 10:58:21;;;;;;;7.78;3.58;;;;;;;12.50;67.70;102908.78;5025795;28;20064;-72
2022/04/15 11:01:18;;;;;;;5.05;3.40;;;;;;;12.36;67.46;102922.16;5026016;28;20026;-72
2022/04/15 11:03:53;;;;;;;6.15;3.83;;;;;;;12.22;67.44;102924.97;5039912;28;20026;-72
2022/04/15 11:06:28;;;;;;;8.20;3.30;;;;;;;11.99;67.79;102923.97;5023260;28;20386;-73
2022/04/15 11:08:54;;;;;;;4.38;3.03;;;;;;;11.98;68.59;102920.47;5025507;28;20371;-72
2022/04/15 11:11:36;;;;;;;4.45;3.42;;;;;;;11.86;69.17;102929.22;5024110;28;20044;-72
2022/04/15 11:14:04;;;;;;;5.75;3.15;;;;;;;11.74;69.71;102910.63;5024219;28;20055;-74
2022/04/15 11:16:47;;;;;;;5.65;3.25;;;;;;;11.72;68.59;102911.69;5025862;28;20075;-72
2022/04/15 11:19:23;;;;;;;4.30;3.00;;;;;;;11.75;68.60;102922.03;5024029;28;20478;-72
2022/04/15 11:21:50;;;;;;;7.32;3.65;;;;;;;11.62;68.90;102926.50;5024899;28;20032;-72
2022/04/15 11:24:22;;;;;;;6.20;3.22;;;;;;;11.40;70.52;102917.38;5026961;28;20112;-72
2022/04/15 11:26:48;;;;;;;4.85;3.33;;;;;;;11.60;69.88;102928.41;5026698;28;20025;-72
2022/04/15 11:29:14;;;;;;;8.95;3.83;;;;;;;11.64;70.99;102938.66;5026763;28;20035;-72